Wednesday, May 27, 2015, 1:31 PM EDT

KSHD, Staunton / Shenandoah

Location: Weyers Cave, VA, United States Lat: 38.267
Local Time: 1:31 PM EDT (17:31 GMT) Lon: -78.9
Time Zone: US/Eastern Elev: 1200 ft

Show me the last for .
Show Decoded

2015-05-27 13:15 METAR KSHD 271715Z AUTO 23005KT 10SM BKN030 BKN038 27/19 A3022 RMK AO2 LTG DSNT
                 NE T02730185 =
2015-05-27 12:55 METAR KSHD 271655Z AUTO 20005KT 10SM SCT027 SCT033 28/19 A3022 RMK AO2 T02770186
                 =
2015-05-27 12:35 METAR KSHD 271635Z AUTO 23005KT 10SM CLR 27/18 A3023 RMK AO2 T02650184 =
2015-05-27 11:55 METAR KSHD 271555Z AUTO 23007KT 10SM CLR 25/18 A3023 RMK AO2 T02500183 =
2015-05-27 11:35 METAR KSHD 271535Z AUTO 21007KT 10SM CLR 25/18 A3023 RMK AO2 T02530184 =
2015-05-27 11:15 METAR KSHD 271515Z AUTO 20008KT 10SM CLR 25/18 A3022 RMK AO2 T02500184 =
2015-05-27 10:55 METAR KSHD 271455Z AUTO 23007KT 10SM CLR 25/19 A3023 RMK AO2 T02480186 =
2015-05-27 10:35 METAR KSHD 271435Z AUTO 17003KT 10SM CLR 25/19 A3022 RMK AO2 T02490190 =
2015-05-27 10:15 METAR KSHD 271415Z AUTO 20005KT 10SM SCT021 24/19 A3023 RMK AO2 T02420187 =
2015-05-27 09:55 METAR KSHD 271355Z AUTO 20007KT 10SM SCT021 24/19 A3022 RMK AO2 T02420189 =
2015-05-27 09:35 METAR KSHD 271335Z AUTO 20007KT 10SM SCT021 24/19 A3022 RMK AO2 T02420190 =
2015-05-27 09:15 METAR KSHD 271315Z AUTO 20007KT 10SM SCT020 24/19 A3021 RMK AO2 T02430190 =
2015-05-27 08:55 METAR KSHD 271255Z AUTO 19006KT 10SM CLR 24/19 A3022 RMK AO2 T02430194 =
2015-05-27 08:35 METAR KSHD 271235Z AUTO 20004KT 10SM CLR 23/19 A3022 RMK AO2 T02340194 =
2015-05-27 08:15 METAR KSHD 271215Z AUTO 00000KT 10SM CLR 22/20 A3021 RMK AO2 T02180198 =
2015-05-27 07:55 METAR KSHD 271155Z AUTO 00000KT 10SM CLR 20/20 A3021 RMK AO2 70015 T02030195
                 10203 20163 =
2015-05-27 07:35 METAR KSHD 271135Z AUTO 00000KT 7SM CLR 19/18 A3021 RMK AO2 T01910184 =
2015-05-27 06:55 METAR KSHD 271055Z AUTO 00000KT 1 3/4SM BR SCT004 17/17 A3019 RMK AO2 VIS 3/4V5
                 T01740166 =
2015-05-27 06:15 METAR KSHD 271015Z AUTO 00000KT 1 1/4SM BR VV007 17/16 A3018 RMK AO2 T01660159 =
2015-05-27 05:55 METAR KSHD 270955Z AUTO 00000KT 2SM BR CLR 17/16 A3018 RMK AO2 T01680161 =
2015-05-27 05:35 METAR KSHD 270935Z AUTO 00000KT 3SM BR CLR 17/16 A3018 RMK AO2 T01680161 =
2015-05-27 05:15 METAR KSHD 270915Z AUTO 00000KT 5SM BR CLR 17/16 A3017 RMK AO2 T01700163 =
2015-05-27 04:35 METAR KSHD 270835Z AUTO 00000KT 4SM BR CLR 17/17 A3016 RMK AO2 T01740166 =
2015-05-27 04:15 METAR KSHD 270815Z AUTO 00000KT 7SM CLR 18/17 A3016 RMK AO2 T01790172 =
2015-05-27 03:35 METAR KSHD 270735Z AUTO 00000KT 4SM BR CLR 18/17 A3018 RMK AO2 T01780171 =
2015-05-27 03:15 METAR KSHD 270715Z AUTO 00000KT 5SM BR CLR 18/17 A3018 RMK AO2 T01810174 =
2015-05-27 02:55 METAR KSHD 270655Z AUTO 00000KT 5SM BR CLR 19/18 A3019 RMK AO2 T01850178 =
2015-05-27 02:35 METAR KSHD 270635Z AUTO 00000KT 7SM CLR 19/18 A3019 RMK AO2 T01860179 =
2015-05-27 02:15 METAR KSHD 270615Z AUTO 00000KT 7SM CLR 18/18 A3020 RMK AO2 T01830176 =
2015-05-27 01:35 METAR KSHD 270535Z AUTO 00000KT 7SM CLR 18/18 A3020 RMK AO2 T01820176 =
2015-05-27 01:15 METAR KSHD 270515Z AUTO 00000KT 1 1/4SM BR VV007 18/17 A3020 RMK AO2 T01810174 =
2015-05-27 00:55 METAR KSHD 270455Z AUTO 00000KT 1 1/4SM BR SCT003 19/18 A3020 RMK AO2 T01880180
                 =
2015-05-27 00:35 METAR KSHD 270435Z AUTO 00000KT 2 1/2SM BR CLR 19/19 A3021 RMK AO2 VIS 1V4
                 T01920185 =
2015-05-26 23:55 METAR KSHD 270355Z AUTO 00000KT 5SM BR CLR 19/18 A3021 RMK AO2 T01890181 =
2015-05-26 23:35 METAR KSHD 270335Z AUTO 00000KT 1 1/2SM BR VV007 20/19 A3021 RMK AO2 VIS 1/2V5
                 T01950187 =
2015-05-26 23:15 METAR KSHD 270315Z AUTO 00000KT 4SM BR CLR 20/19 A3021 RMK AO2 T01950186 =
2015-05-26 22:55 METAR KSHD 270255Z AUTO 00000KT 7SM CLR 20/19 A3021 RMK AO2 T01990191 =
2015-05-26 22:35 METAR KSHD 270235Z AUTO 00000KT 7SM CLR 20/19 A3021 RMK AO2 T02000191 =
2015-05-26 22:15 METAR KSHD 270215Z AUTO 00000KT 7SM CLR 20/19 A3021 RMK AO2 T02000191 =
2015-05-26 21:55 METAR KSHD 270155Z AUTO 00000KT 7SM CLR 21/20 A3021 RMK AO2 T02050195 =
2015-05-26 21:35 METAR KSHD 270135Z AUTO 00000KT 7SM CLR 21/20 A3020 RMK AO2 T02070196 =
2015-05-26 21:15 METAR KSHD 270115Z AUTO 00000KT 10SM CLR 21/20 A3020 RMK AO2 T02090198 =
2015-05-26 20:55 METAR KSHD 270055Z AUTO 16003KT 10SM CLR 21/20 A3020 RMK AO2 T02100199 =
2015-05-26 20:35 METAR KSHD 270035Z AUTO 20003KT 10SM CLR 21/20 A3020 RMK AO2 T02130202 =
2015-05-26 20:15 METAR KSHD 270015Z AUTO 19003KT 10SM CLR 22/21 A3020 RMK AO2 T02150207 =
2015-05-26 19:55 METAR KSHD 262355Z AUTO 20004KT 10SM CLR 21/21 A3020 RMK AO2 P0001 60015
                 T02140205 10309 20213 =
2015-05-26 19:35 METAR KSHD 262335Z AUTO 17003KT 10SM CLR 21/21 A3020 RMK AO2 P0001 T02140205 =
2015-05-26 19:15 METAR KSHD 262315Z AUTO 17004KT 10SM SCT050 SCT075 SCT085 22/21 A3021 RMK AO2
                 T02160208 =
2015-05-26 18:55 METAR KSHD 262255Z AUTO 21005KT 10SM -RA SCT055 BKN090 OVC110 22/21 A3021 RMK
                 AO2 P0006 T02170210 =
2015-05-26 18:35 METAR KSHD 262235Z AUTO 22004KT 5SM -RA SCT070 SCT075 OVC090 22/21 A3021 RMK AO2
                 LTG DSNT E P0006 T02170210 =
2015-05-26 18:15 METAR KSHD 262215Z AUTO 00000KT 3SM RA SCT033 BKN049 OVC090 22/21 A3021 RMK AO2
                 LTG DSNT E AND SE P0003 T02150206 =
2015-05-26 17:35 METAR KSHD 262135Z AUTO 19004KT 10SM TSRA SCT055 BKN075 OVC085 23/20 A3021 RMK
                 AO2 LTG DSNT SE THRU W T02320202 =
2015-05-26 17:15 METAR KSHD 262115Z AUTO 16006KT 10SM -RA SCT070 BKN090 25/18 A3020 RMK AO2 LTG
                 DSNT SW T02520183 =
2015-05-26 16:55 METAR KSHD 262055Z AUTO 18011G15KT 10SM SCT050 SCT060 27/19 A3020 RMK AO2 LTG
                 DSNT SW T02710185 =
2015-05-26 16:35 METAR KSHD 262035Z AUTO 18008KT 10SM SCT050 BKN060 29/17 A3020 RMK AO2 LTG DSNT
                 SW T02900171 =
2015-05-26 16:15 METAR KSHD 262015Z AUTO 17005KT 10SM CLR 31/15 A3019 RMK AO2 LTG DSNT W
                 T03050153 =
2015-05-26 15:35 METAR KSHD 261935Z AUTO 23004KT 10SM SCT049 BKN055 BKN070 30/16 A3021 RMK AO2
                 LTG DSNT W T02990163 =
2015-05-26 15:15 METAR KSHD 261915Z AUTO 30003KT 10SM SCT049 BKN055 BKN070 29/17 A3022 RMK AO2
                 T02900166 =
2015-05-26 14:55 METAR KSHD 261855Z AUTO 28005KT 10SM SCT049 SCT070 29/16 A3023 RMK AO2 T02910157
                 =
2015-05-26 14:35 METAR KSHD 261835Z AUTO 00000KT 10SM CLR 30/16 A3023 RMK AO2 T03040164 =
2015-05-26 14:15 METAR KSHD 261815Z AUTO 00000KT 10SM CLR 29/16 A3024 RMK AO2 T02920161 =
2015-05-26 13:55 METAR KSHD 261755Z AUTO 18004KT 10SM CLR 29/17 A3025 RMK AO2 T02900170 10290
                 20190 =
2015-05-26 13:35 METAR KSHD 261735Z AUTO 24003KT 10SM CLR 29/16 A3025 RMK AO2 T02900164 =

Support USWX by starting your Amazon purchase here.